createdAt,value
2022-10-24T00:01:17.106Z,96301.19
2022-10-24T00:03:44.797Z,96314.00
2022-10-24T00:06:13.164Z,96311.03
2022-10-24T00:08:43.506Z,96300.84
2022-10-24T00:11:13.116Z,96310.81
2022-10-24T00:13:40.633Z,96311.63
2022-10-24T00:16:08.235Z,96310.31
2022-10-24T00:18:35.326Z,96313.16
2022-10-24T00:21:02.851Z,96309.50
2022-10-24T00:23:29.841Z,96310.03
2022-10-24T00:26:01.995Z,96291.97
2022-10-24T00:28:30.059Z,96295.13
2022-10-24T00:30:57.515Z,96296.69
2022-10-24T00:33:25.115Z,96281.22
2022-10-24T00:35:52.276Z,96295.66
2022-10-24T00:38:19.316Z,96288.06
2022-10-24T00:40:46.297Z,96282.00
2022-10-24T00:43:23.025Z,96270.75
2022-10-24T00:45:57.713Z,96275.50
2022-10-24T00:48:31.862Z,96265.25
2022-10-24T00:51:16.698Z,96276.28
2022-10-24T00:53:47.867Z,96270.53
2022-10-24T00:56:18.436Z,96271.09
2022-10-24T00:58:46.315Z,96270.56
2022-10-24T01:01:13.494Z,96264.25
2022-10-24T01:03:40.677Z,96260.81
2022-10-24T01:06:40.005Z,96268.72
2022-10-24T01:09:18.036Z,96269.19
2022-10-24T01:12:01.576Z,96264.00
2022-10-24T01:14:50.085Z,96268.47
2022-10-24T01:17:37.070Z,96268.47
2022-10-24T01:20:34.665Z,96265.84
2022-10-24T01:23:23.610Z,96269.78
2022-10-24T01:26:11.126Z,96259.00
2022-10-24T01:28:48.275Z,96273.47
2022-10-24T01:31:29.773Z,96251.66
2022-10-24T01:34:04.266Z,96257.16
2022-10-24T01:36:39.626Z,96251.66
2022-10-24T01:39:13.736Z,96248.25
2022-10-24T01:41:42.735Z,96245.91
2022-10-24T01:44:16.866Z,96245.97
2022-10-24T01:46:58.755Z,96248.38
2022-10-24T01:49:31.545Z,96243.94
2022-10-24T01:52:02.997Z,96233.69
2022-10-24T01:54:32.075Z,96234.56
2022-10-24T01:56:59.075Z,96233.00
2022-10-24T01:59:25.966Z,96231.13
2022-10-24T02:01:55.694Z,96236.84
2022-10-24T02:04:24.455Z,96231.03
2022-10-24T02:06:53.146Z,96232.88
2022-10-24T02:09:21.016Z,96238.91
2022-10-24T02:11:49.355Z,96243.91
2022-10-24T02:14:24.955Z,96238.38
2022-10-24T02:16:52.465Z,96235.50
2022-10-24T02:19:19.825Z,96232.66
2022-10-24T02:22:08.075Z,96236.91
2022-10-24T02:24:45.886Z,96228.31
2022-10-24T02:27:17.956Z,96228.56
2022-10-24T02:29:53.224Z,96223.06
2022-10-24T02:32:25.926Z,96226.78
2022-10-24T02:34:54.068Z,96224.41
2022-10-24T02:37:22.513Z,96219.72
2022-10-24T02:39:51.726Z,96223.53
2022-10-24T02:42:20.377Z,96229.41
2022-10-24T02:44:49.093Z,96235.97
2022-10-24T02:47:19.735Z,96244.94
2022-10-24T02:49:47.025Z,96244.09
2022-10-24T02:52:14.246Z,96254.34
2022-10-24T02:54:41.275Z,96257.06
2022-10-24T02:57:08.365Z,96274.22
2022-10-24T02:59:35.385Z,96278.44
2022-10-24T03:02:02.445Z,96271.91
2022-10-24T03:04:29.445Z,96264.34
2022-10-24T03:06:56.526Z,96266.47
2022-10-24T03:09:23.566Z,96274.91
2022-10-24T03:11:50.633Z,96273.34
2022-10-24T03:14:17.665Z,96269.91
2022-10-24T03:16:44.741Z,96271.78
2022-10-24T03:19:11.825Z,96274.16
2022-10-24T03:21:38.861Z,96274.19
2022-10-24T03:26:33.289Z,96286.13
2022-10-24T03:29:00.754Z,96295.09
2022-10-24T03:31:27.865Z,96296.41
2022-10-24T03:33:54.805Z,96310.88
2022-10-24T03:36:22.006Z,96295.34
2022-10-24T03:38:49.307Z,96286.13
2022-10-24T03:41:16.366Z,96294.28
2022-10-24T03:43:43.425Z,96287.16
2022-10-24T03:46:10.573Z,96292.69
2022-10-24T03:48:37.605Z,96293.41
2022-10-24T03:51:04.667Z,96287.34
2022-10-24T03:53:31.741Z,96271.00
2022-10-24T03:55:58.726Z,96273.38
2022-10-24T03:58:25.805Z,96261.81
2022-10-24T04:00:53.046Z,96266.81
2022-10-24T04:03:20.065Z,96264.19
2022-10-24T04:05:47.386Z,96270.44
2022-10-24T04:08:14.505Z,96263.09
2022-10-24T04:10:41.513Z,96264.94
2022-10-24T04:13:08.537Z,96272.84
2022-10-24T04:15:35.765Z,96283.38
2022-10-24T04:18:03.524Z,96293.38
2022-10-24T04:20:30.854Z,96293.66
2022-10-24T04:23:00.006Z,96303.94
2022-10-24T04:25:29.654Z,96309.75
2022-10-24T04:27:56.959Z,96312.66
2022-10-24T04:30:24.342Z,96322.38
2022-10-24T04:32:51.452Z,96325.25
2022-10-24T04:35:18.540Z,96319.16
2022-10-24T04:37:45.691Z,96331.25
2022-10-24T04:40:13.374Z,96344.13
2022-10-24T04:42:40.961Z,96343.88
2022-10-24T04:45:09.053Z,96340.44
2022-10-24T04:47:36.537Z,96343.31
2022-10-24T04:50:05.222Z,96352.53
2022-10-24T04:52:32.550Z,96348.06
2022-10-24T04:54:59.778Z,96340.94
2022-10-24T04:57:27.012Z,96346.44
2022-10-24T04:59:54.221Z,96352.50
2022-10-24T05:02:21.426Z,96349.88
2022-10-24T05:04:48.612Z,96353.03
2022-10-24T05:07:15.973Z,96354.09
2022-10-24T05:09:43.135Z,96360.16
2022-10-24T05:12:10.530Z,96358.59
2022-10-24T05:14:37.899Z,96372.03
2022-10-24T05:17:05.063Z,96364.69
2022-10-24T05:19:32.098Z,96371.56
2022-10-24T05:21:59.254Z,96363.44
2022-10-24T05:24:26.574Z,96367.16
2022-10-24T05:27:00.459Z,96376.09
2022-10-24T05:29:27.655Z,96371.63
2022-10-24T05:31:54.813Z,96373.47
2022-10-24T05:34:22.135Z,96378.19
2022-10-24T05:36:49.414Z,96380.31
2022-10-24T05:39:16.575Z,96370.28
2022-10-24T05:41:46.293Z,96371.63
2022-10-24T05:44:15.543Z,96373.72
2022-10-24T05:46:42.455Z,96369.22
2022-10-24T05:49:09.655Z,96368.16
2022-10-24T05:51:36.773Z,96382.09
2022-10-24T05:54:04.114Z,96385.00
2022-10-24T05:56:31.459Z,96387.13
2022-10-24T05:58:58.613Z,96389.75
2022-10-24T06:01:25.949Z,96390.06
2022-10-24T06:03:53.293Z,96395.34
2022-10-24T06:06:20.492Z,96406.69
2022-10-24T06:08:47.935Z,96421.44
2022-10-24T06:11:15.179Z,96425.09
2022-10-24T06:13:42.415Z,96427.75
2022-10-24T06:16:11.374Z,96433.28
2022-10-24T06:18:40.213Z,96425.91
2022-10-24T06:21:08.937Z,96427.25
2022-10-24T06:23:36.612Z,96426.22
2022-10-24T06:26:08.813Z,96421.78
2022-10-24T06:28:36.109Z,96424.97
2022-10-24T06:31:04.016Z,96434.72
2022-10-24T06:33:32.059Z,96430.50
2022-10-24T06:36:05.815Z,96434.22
2022-10-24T06:38:33.573Z,96436.88
2022-10-24T06:41:06.744Z,96440.88
2022-10-24T06:43:34.333Z,96432.97
2022-10-24T06:46:06.013Z,96450.41
2022-10-24T06:48:34.374Z,96452.25
2022-10-24T06:51:01.721Z,96454.34
2022-10-24T06:53:28.855Z,96453.84
2022-10-24T06:55:59.615Z,96449.94
2022-10-24T06:58:26.859Z,96448.38
2022-10-24T07:00:54.025Z,96450.50
2022-10-24T07:03:21.373Z,96456.03
2022-10-24T07:05:48.693Z,96458.97
2022-10-24T07:08:15.733Z,96453.97
2022-10-24T07:10:43.055Z,96459.03
2022-10-24T07:13:10.295Z,96463.50
2022-10-24T07:15:37.453Z,96454.81
2022-10-24T07:18:04.620Z,96463.25
2022-10-24T07:20:31.910Z,96464.84
2022-10-24T07:22:59.135Z,96471.44
2022-10-24T07:25:26.296Z,96457.13
2022-10-24T07:27:55.091Z,96452.09
2022-10-24T07:30:22.341Z,96468.75
2022-10-24T07:32:49.575Z,96473.75
2022-10-24T07:35:16.895Z,96480.59
2022-10-24T07:37:44.342Z,96468.69
2022-10-24T07:40:12.254Z,96470.50
2022-10-24T07:42:39.463Z,96482.88
2022-10-24T07:45:07.532Z,96479.28
2022-10-24T07:47:34.773Z,96491.38
2022-10-24T07:50:01.974Z,96488.94
2022-10-24T07:52:29.133Z,96486.53
2022-10-24T07:54:56.973Z,96477.50
2022-10-24T07:57:25.055Z,96477.75
2022-10-24T07:59:52.253Z,96474.28
2022-10-24T08:02:19.415Z,96479.00
2022-10-24T08:04:46.652Z,96480.59
2022-10-24T08:07:14.029Z,96480.28
2022-10-24T08:09:43.733Z,96479.69
2022-10-24T08:12:11.534Z,96488.97
2022-10-24T08:14:40.743Z,96480.22
2022-10-24T08:17:08.414Z,96474.34
2022-10-24T08:19:36.181Z,96470.38
2022-10-24T08:22:03.938Z,96466.94
2022-10-24T08:24:31.013Z,96470.09
2022-10-24T08:26:58.263Z,96466.66
2022-10-24T08:29:25.825Z,96469.84
2022-10-24T08:31:55.706Z,96466.13
2022-10-24T08:34:23.458Z,96469.34
2022-10-24T08:36:51.135Z,96463.47
2022-10-24T08:39:19.374Z,96473.22
2022-10-24T08:41:59.326Z,96465.81
2022-10-24T08:44:34.494Z,96463.38
2022-10-24T08:47:32.882Z,96463.38
2022-10-24T08:50:27.294Z,96458.56
2022-10-24T08:53:05.293Z,96453.50
2022-10-24T08:55:48.879Z,96458.75
2022-10-24T08:58:39.013Z,96446.31
2022-10-24T09:01:14.828Z,96447.31
2022-10-24T09:04:01.811Z,96454.47
2022-10-24T09:06:33.376Z,96449.38
2022-10-24T09:09:04.177Z,96448.25
2022-10-24T09:11:44.052Z,96445.84
2022-10-24T09:14:17.214Z,96449.25
2022-10-24T09:16:48.918Z,96444.19
2022-10-24T09:19:19.820Z,96453.41
2022-10-24T09:21:48.132Z,96444.72
2022-10-24T09:24:33.335Z,96438.69
2022-10-24T09:27:04.698Z,96437.84
2022-10-24T09:29:33.493Z,96442.31
2022-10-24T09:32:01.854Z,96444.41
2022-10-24T09:34:29.091Z,96439.63
2022-10-24T09:36:56.737Z,96443.56
2022-10-24T09:39:31.535Z,96444.59
2022-10-24T09:42:00.412Z,96444.81
2022-10-24T09:44:34.813Z,96445.03
2022-10-24T09:47:04.773Z,96441.00
2022-10-24T09:49:37.338Z,96439.84
2022-10-24T09:52:04.421Z,96438.44
2022-10-24T09:54:34.220Z,96444.28
2022-10-24T10:00:04.654Z,96449.53
2022-10-24T10:02:38.011Z,96443.81
2022-10-24T10:05:05.172Z,96442.63
2022-10-24T10:07:37.978Z,96439.31
2022-10-24T10:10:07.625Z,96442.81
2022-10-24T10:12:37.691Z,96441.59
2022-10-24T10:15:27.184Z,96427.94
2022-10-24T10:18:01.412Z,96424.25
2022-10-24T10:20:38.813Z,96423.59
2022-10-24T10:23:25.653Z,96422.97
2022-10-24T10:26:12.294Z,96423.09
2022-10-24T10:28:48.460Z,96415.38
2022-10-24T10:31:19.638Z,96412.13
2022-10-24T10:34:18.819Z,96409.66
2022-10-24T10:37:02.501Z,96414.09
2022-10-24T10:39:49.374Z,96398.84
2022-10-24T10:42:28.093Z,96397.97
2022-10-24T10:45:10.491Z,96399.56
2022-10-24T10:47:47.621Z,96393.03
2022-10-24T10:50:37.658Z,96392.53
2022-10-24T10:53:42.413Z,96396.28
2022-10-24T10:56:18.773Z,96400.41
2022-10-24T10:59:12.934Z,96377.41
2022-10-24T11:13:26.493Z,96368.78
2022-10-24T11:15:59.252Z,96375.22
2022-10-24T11:18:35.462Z,96370.91
2022-10-24T11:21:07.219Z,96363.91
2022-10-24T11:24:00.117Z,96357.66
2022-10-24T11:26:39.334Z,96350.22
2022-10-24T11:29:20.211Z,96345.06
2022-10-24T11:31:53.553Z,96345.75
2022-10-24T11:34:27.176Z,96346.25
2022-10-24T11:37:12.813Z,96334.84
2022-10-24T11:40:10.813Z,96339.06
2022-10-24T11:43:00.613Z,96330.59
2022-10-24T11:45:42.494Z,96343.09
2022-10-24T11:48:19.737Z,96333.84
2022-10-24T11:50:54.693Z,96338.75
2022-10-24T11:53:34.612Z,96347.81
2022-10-24T11:56:20.406Z,96332.16
2022-10-24T11:59:14.733Z,96322.50
2022-10-24T12:02:16.151Z,96335.59
2022-10-24T12:05:15.555Z,96331.66
2022-10-24T12:08:16.709Z,96323.97
2022-10-24T12:11:24.496Z,96318.38
2022-10-24T12:13:51.820Z,96319.72
2022-10-24T12:16:48.016Z,96306.53
2022-10-24T12:19:19.453Z,96310.59
2022-10-24T12:21:54.852Z,96307.94
2022-10-24T12:24:30.613Z,96301.22
2022-10-24T12:27:02.942Z,96288.25
2022-10-24T12:29:34.016Z,96279.19
2022-10-24T12:32:45.078Z,96287.44
2022-10-24T12:35:31.662Z,96280.59
2022-10-24T12:37:59.741Z,96278.50
2022-10-24T12:40:45.560Z,96276.50
2022-10-24T12:43:36.372Z,96280.75
2022-10-24T12:46:21.690Z,96268.81
2022-10-24T12:48:59.575Z,96268.59
2022-10-24T12:51:38.133Z,96257.56
2022-10-24T12:54:43.174Z,96263.97
2022-10-24T12:57:13.095Z,96258.66
2022-10-24T12:59:48.975Z,96256.28
2022-10-24T13:02:16.313Z,96261.97
2022-10-24T13:05:09.894Z,96253.81
2022-10-24T13:08:22.145Z,96246.63
2022-10-24T13:11:23.743Z,96232.63
2022-10-24T13:13:54.020Z,96243.53
2022-10-24T13:16:40.176Z,96241.19
2022-10-24T13:19:07.741Z,96228.78
2022-10-24T13:21:50.975Z,96230.09
2022-10-24T13:24:20.176Z,96230.66
2022-10-24T13:26:51.618Z,96225.16
2022-10-24T13:29:21.694Z,96223.47
2022-10-24T13:31:53.733Z,96217.69
2022-10-24T13:34:38.576Z,96210.81
2022-10-24T13:37:10.373Z,96221.34
2022-10-24T13:39:42.666Z,96214.44
2022-10-24T13:42:37.617Z,96229.47
2022-10-24T13:45:29.536Z,96224.63
2022-10-24T13:48:24.335Z,96227.59
2022-10-24T13:51:17.732Z,96221.63
2022-10-24T13:53:55.094Z,96218.41
2022-10-24T13:56:22.375Z,96202.13
2022-10-24T13:58:49.575Z,96202.03
2022-10-24T14:01:26.025Z,96203.19
2022-10-24T14:03:55.613Z,96206.53
2022-10-24T14:06:31.375Z,96206.34
2022-10-24T14:09:09.536Z,96199.16
2022-10-24T14:11:46.014Z,96204.09
2022-10-24T14:14:37.735Z,96206.75
2022-10-24T14:17:22.779Z,96202.69
2022-10-24T14:20:19.733Z,96201.91
2022-10-24T14:22:47.636Z,96192.00
2022-10-24T14:25:38.252Z,96180.56
2022-10-24T14:28:17.211Z,96177.72
2022-10-24T14:31:27.306Z,96172.69
2022-10-24T14:33:56.550Z,96183.00
2022-10-24T14:36:28.446Z,96188.25
2022-10-24T14:38:58.910Z,96189.63
2022-10-24T14:41:38.584Z,96188.25
2022-10-24T14:44:07.427Z,96193.13
2022-10-24T14:46:37.297Z,96183.22
2022-10-24T14:49:33.989Z,96185.78
2022-10-24T14:52:08.073Z,96177.72
2022-10-24T14:54:36.205Z,96177.50
2022-10-24T14:57:03.986Z,96163.53
2022-10-24T14:59:35.525Z,96177.81
2022-10-24T15:02:25.404Z,96175.34
2022-10-24T15:04:54.150Z,96170.97
2022-10-24T15:07:29.153Z,96161.34
2022-10-24T15:09:58.308Z,96161.69
2022-10-24T15:12:37.631Z,96158.56
2022-10-24T15:15:23.535Z,96143.81
2022-10-24T15:17:52.275Z,96151.28
2022-10-24T15:20:23.386Z,96151.28
2022-10-24T15:22:56.666Z,96151.06
2022-10-24T15:25:31.327Z,96148.78
2022-10-24T15:28:01.832Z,96149.56
2022-10-24T15:30:37.171Z,96153.09
2022-10-24T15:33:06.617Z,96150.50
2022-10-24T15:35:41.567Z,96143.81
2022-10-24T15:38:15.407Z,96151.06
2022-10-24T15:40:45.886Z,96153.03
2022-10-24T15:43:18.647Z,96154.16
2022-10-24T15:45:46.545Z,96146.06
2022-10-24T15:48:13.517Z,96150.91
2022-10-24T15:50:46.087Z,96160.88
2022-10-24T15:53:19.325Z,96157.28
2022-10-24T15:55:46.745Z,96156.34
2022-10-24T15:58:15.934Z,96153.28
2022-10-24T16:00:43.192Z,96152.56
2022-10-24T16:03:15.686Z,96141.53
2022-10-24T16:05:49.254Z,96147.19
2022-10-24T16:08:19.104Z,96148.31
2022-10-24T16:10:50.664Z,96144.72
2022-10-24T16:13:20.405Z,96149.84
2022-10-24T16:15:48.086Z,96153.88
2022-10-24T16:18:15.465Z,96153.66
2022-10-24T16:20:42.818Z,96145.47
2022-10-24T16:23:15.045Z,96147.41
2022-10-24T16:25:42.165Z,96142.97
2022-10-24T16:28:09.726Z,96144.56
2022-10-24T16:30:39.585Z,96134.84
2022-10-24T16:33:07.125Z,96146.28
2022-10-24T16:35:37.773Z,96147.88
2022-10-24T16:38:06.425Z,96165.09
2022-10-24T16:43:26.346Z,96162.25
2022-10-24T16:46:01.254Z,96164.88
2022-10-24T16:48:28.667Z,96155.91
2022-10-24T16:50:56.075Z,96147.72
2022-10-24T16:53:24.284Z,96150.13
2022-10-24T16:55:54.003Z,96148.56
2022-10-24T16:58:21.393Z,96164.19
2022-10-24T17:00:53.005Z,96166.59
2022-10-24T17:03:20.813Z,96170.03
2022-10-24T17:05:50.191Z,96175.34
2022-10-24T17:08:17.222Z,96187.28
2022-10-24T17:10:44.300Z,96191.78
2022-10-24T17:13:11.672Z,96193.13
2022-10-24T17:15:39.935Z,96205.34
2022-10-24T17:18:07.943Z,96204.81
2022-10-24T17:20:35.366Z,96199.53
2022-10-24T17:23:04.395Z,96200.59
2022-10-24T17:25:33.925Z,96210.38
2022-10-24T17:28:00.904Z,96203.50
2022-10-24T17:30:32.509Z,96203.50
2022-10-24T17:33:00.466Z,96206.13
2022-10-24T17:35:28.085Z,96208.00
2022-10-24T17:38:06.149Z,96214.91
2022-10-24T17:40:45.427Z,96213.06
2022-10-24T17:43:18.910Z,96221.00
2022-10-24T17:45:46.475Z,96228.91
2022-10-24T17:48:15.412Z,96236.84
2022-10-24T17:50:43.267Z,96237.06
2022-10-24T17:53:17.670Z,96225.16
2022-10-24T17:55:47.401Z,96221.47
2022-10-24T17:58:16.532Z,96229.13
2022-10-24T18:00:44.884Z,96231.78
2022-10-24T18:03:12.598Z,96248.91
2022-10-24T18:05:39.669Z,96245.25
2022-10-24T18:08:08.618Z,96245.78
2022-10-24T18:10:37.868Z,96245.75
2022-10-24T18:13:05.236Z,96246.00
2022-10-24T18:15:32.646Z,96246.72
2022-10-24T18:18:00.066Z,96246.22
2022-10-24T18:20:27.376Z,96260.75
2022-10-24T18:22:54.950Z,96266.03
2022-10-24T18:25:23.130Z,96279.53
2022-10-24T18:27:51.339Z,96290.63
2022-10-24T18:30:21.944Z,96299.94
2022-10-24T18:32:49.905Z,96321.97
2022-10-24T18:35:17.375Z,96329.03
2022-10-24T18:37:44.455Z,96321.09
2022-10-24T18:40:12.186Z,96329.28
2022-10-24T18:42:57.839Z,96327.72
2022-10-24T18:45:26.919Z,96329.59
2022-10-24T18:47:54.613Z,96334.63
2022-10-24T18:50:23.891Z,96334.63
2022-10-24T18:53:10.983Z,96330.97
2022-10-24T18:55:38.470Z,96320.66
2022-10-24T18:58:11.177Z,96321.97
2022-10-24T19:00:39.981Z,96327.31
2022-10-24T19:03:33.858Z,96327.84
2022-10-24T19:06:24.745Z,96321.81
2022-10-24T19:08:52.491Z,96322.13
2022-10-24T19:11:19.980Z,96303.41
2022-10-24T19:13:47.044Z,96287.03
2022-10-24T19:16:28.743Z,96288.38
2022-10-24T19:19:00.915Z,96281.81
2022-10-24T19:21:29.053Z,96283.69
2022-10-24T19:23:56.010Z,96289.00
2022-10-24T19:26:23.068Z,96284.78
2022-10-24T19:28:51.107Z,96283.19
2022-10-24T19:31:18.108Z,96287.44
2022-10-24T19:33:45.643Z,96294.03
2022-10-24T19:36:14.466Z,96300.38
2022-10-24T19:38:43.903Z,96305.16
2022-10-24T19:41:11.900Z,96301.72
2022-10-24T19:43:39.047Z,96304.09
2022-10-24T19:46:19.745Z,96300.13
2022-10-24T19:48:49.698Z,96305.41
2022-10-24T19:51:20.133Z,96299.31
2022-10-24T19:53:48.607Z,96303.00
2022-10-24T19:56:20.152Z,96307.78
2022-10-24T19:58:49.856Z,96308.28
2022-10-24T20:01:20.704Z,96313.56
2022-10-24T20:03:49.458Z,96316.97
2022-10-24T20:06:17.162Z,96328.06
2022-10-24T20:08:46.539Z,96323.31
2022-10-24T20:11:15.819Z,96333.63
2022-10-24T20:13:44.087Z,96342.34
2022-10-24T20:16:11.227Z,96327.28
2022-10-24T20:21:26.857Z,96326.75
2022-10-24T20:23:53.867Z,96325.19
2022-10-24T20:26:23.659Z,96317.81
2022-10-24T20:28:52.877Z,96306.75
2022-10-24T20:31:27.688Z,96296.97
2022-10-24T20:34:05.048Z,96291.44
2022-10-24T20:36:34.820Z,96299.84
2022-10-24T20:39:01.866Z,96312.81
2022-10-24T20:41:29.887Z,96323.88
2022-10-24T20:43:56.889Z,96328.63
2022-10-24T20:46:24.280Z,96345.78
2022-10-24T20:48:51.255Z,96358.97
2022-10-24T20:51:20.364Z,96358.44
2022-10-24T20:53:47.874Z,96370.84
2022-10-24T20:56:22.994Z,96373.47
2022-10-24T20:58:51.665Z,96384.28
2022-10-24T21:01:21.185Z,96380.59
2022-10-24T21:03:49.084Z,96383.00
2022-10-24T21:06:19.697Z,96383.78
2022-10-24T21:08:48.782Z,96385.88
2022-10-24T21:11:18.565Z,96375.34
2022-10-24T21:13:46.143Z,96375.84
2022-10-24T21:16:13.387Z,96371.13
2022-10-24T21:18:40.870Z,96371.63
2022-10-24T21:21:13.787Z,96374.53
2022-10-24T21:23:41.186Z,96383.22
2022-10-24T21:26:11.217Z,96380.88
2022-10-24T21:28:38.506Z,96392.47
2022-10-24T21:31:06.748Z,96390.09
2022-10-24T21:33:34.155Z,96389.81
2022-10-24T21:36:12.646Z,96380.84
2022-10-24T21:38:39.806Z,96391.91
2022-10-24T21:41:09.000Z,96380.84
2022-10-24T21:43:38.225Z,96381.91
2022-10-24T21:46:27.224Z,96382.41
2022-10-24T21:48:55.987Z,96380.03
2022-10-24T21:51:28.376Z,96392.69
2022-10-24T21:53:57.648Z,96394.81
2022-10-24T21:56:26.962Z,96396.09
2022-10-24T21:58:56.699Z,96394.75
2022-10-24T22:01:26.200Z,96401.34
2022-10-24T22:03:54.506Z,96401.06
2022-10-24T22:06:22.864Z,96409.75
2022-10-24T22:08:51.176Z,96407.88
2022-10-24T22:11:21.146Z,96406.56
2022-10-24T22:13:48.958Z,96410.50
2022-10-24T22:16:17.810Z,96402.56
2022-10-24T22:18:45.165Z,96404.44
2022-10-24T22:21:36.577Z,96411.00
2022-10-24T22:26:54.375Z,96410.72
2022-10-24T22:29:24.233Z,96414.66
2022-10-24T22:31:52.849Z,96424.63
2022-10-24T22:34:24.888Z,96427.78
2022-10-24T22:37:12.947Z,96420.94
2022-10-24T22:39:40.766Z,96419.34
2022-10-24T22:42:13.459Z,96417.47
2022-10-24T22:44:44.297Z,96425.66
2022-10-24T22:47:32.345Z,96415.63
2022-10-24T22:50:11.195Z,96417.94
2022-10-24T22:52:38.488Z,96412.66
2022-10-24T22:55:12.597Z,96416.34
2022-10-24T22:57:40.161Z,96421.84
2022-10-24T23:00:08.062Z,96421.34
2022-10-24T23:02:41.222Z,96420.03
2022-10-24T23:05:34.782Z,96430.03
2022-10-24T23:08:06.036Z,96437.38
2022-10-24T23:10:34.464Z,96430.53
2022-10-24T23:13:01.721Z,96448.16
2022-10-24T23:15:29.137Z,96451.06
2022-10-24T23:17:56.267Z,96456.59
2022-10-24T23:20:35.497Z,96453.38
2022-10-24T23:23:16.008Z,96451.53
2022-10-24T23:25:52.818Z,96448.31
2022-10-24T23:28:30.527Z,96446.75
2022-10-24T23:30:57.822Z,96447.03
2022-10-24T23:33:29.657Z,96436.00
2022-10-24T23:36:00.172Z,96449.16
2022-10-24T23:38:27.886Z,96445.22
2022-10-24T23:40:55.273Z,96451.78
2022-10-24T23:43:23.475Z,96439.91
2022-10-24T23:46:20.268Z,96431.22
2022-10-24T23:49:21.719Z,96440.41
2022-10-24T23:52:00.908Z,96442.81
2022-10-24T23:54:33.069Z,96440.97
2022-10-24T23:57:00.833Z,96445.19
2022-10-24T23:59:28.997Z,96450.19
